Time;durP1;ratioP1;P1;durP2;ratioP2;P2;SDS_P1;SDS_P2;PMS_P1;PMS_P2;Temp;Humidity;BMP_temperature;BMP_pressure;BME280_temperature;BME280_humidity;BME280_pressure;Samples;Min_cycle;Max_cycle;Signal;HPM_P1;HPM_P2
2023/10/29 00:06:06;;;;;;;5.17;2.93;;;;;;;17.21;71.78;99766.94;31854454;27;20061;-85
2023/10/29 00:21:08;;;;;;;5.53;3.10;;;;;;;16.82;73.15;99768.16;31868284;27;20492;-85
2023/10/29 00:36:10;;;;;;;4.83;3.67;;;;;;;16.17;76.22;99770.53;31859803;27;20123;-84
2023/10/29 00:51:12;;;;;;;4.47;3.13;;;;;;;15.85;78.81;99766.56;31860706;27;20047;-86
2023/10/29 01:06:15;;;;;;;4.20;3.37;;;;;;;15.38;85.77;99790.97;31868221;27;20492;-84
2023/10/29 01:21:18;;;;;;;10.93;6.63;;;;;;;15.00;88.86;99830.50;31860408;27;20048;-85
2023/10/29 01:36:20;;;;;;;6.73;3.80;;;;;;;14.84;93.45;99849.91;31893189;27;20051;-85
2023/10/29 01:51:22;;;;;;;6.87;4.17;;;;;;;14.61;97.83;99865.66;31864064;27;20046;-84
2023/10/29 02:06:24;;;;;;;10.10;4.37;;;;;;;14.52;100.00;99887.47;31876519;27;20040;-85
2023/10/29 02:21:26;;;;;;;7.20;3.53;;;;;;;14.47;100.00;99904.44;31896039;27;20058;-84
2023/10/29 02:36:28;;;;;;;8.27;5.43;;;;;;;14.49;100.00;99912.19;31895092;27;20055;-85
2023/10/29 02:51:30;;;;;;;6.80;3.93;;;;;;;14.54;100.00;99934.22;31886567;27;20161;-85
2023/10/29 03:06:32;;;;;;;10.13;3.73;;;;;;;14.54;100.00;99953.34;31864406;27;20526;-85
2023/10/29 03:21:34;;;;;;;7.33;3.37;;;;;;;14.53;100.00;99978.38;31881726;27;20047;-85
2023/10/29 03:36:36;;;;;;;7.10;3.30;;;;;;;14.43;100.00;99980.28;31876625;27;20047;-84
2023/10/29 03:51:43;;;;;;;5.93;2.77;;;;;;;14.88;100.00;99982.44;31862119;27;20591;-85
2023/10/29 04:06:46;;;;;;;11.83;2.77;;;;;;;14.68;99.26;100001.19;31852246;27;20047;-86
2023/10/29 04:21:47;;;;;;;11.33;2.70;;;;;;;14.58;98.62;100003.13;31847414;27;20058;-85
2023/10/29 04:36:51;;;;;;;5.90;2.90;;;;;;;14.64;98.14;100017.72;31849300;27;20412;-84
2023/10/29 04:51:53;;;;;;;4.53;2.57;;;;;;;14.84;96.08;100041.97;31882349;27;20055;-84
2023/10/29 05:06:55;;;;;;;5.13;2.97;;;;;;;15.44;94.35;100054.47;31899649;27;20043;-85
2023/10/29 05:21:57;;;;;;;6.70;2.50;;;;;;;16.92;84.54;100084.91;31895704;27;20054;-85
2023/10/29 05:36:59;;;;;;;6.63;3.10;;;;;;;18.47;78.17;100105.94;31832890;27;20043;-85
2023/10/29 05:52:02;;;;;;;3.57;2.90;;;;;;;20.37;68.81;100126.03;31881362;27;20047;-87
2023/10/29 06:07:05;;;;;;;5.33;2.57;;;;;;;21.81;62.60;100124.94;31892376;27;20046;-83
2023/10/29 06:22:08;;;;;;;4.20;2.15;;;;;;;22.91;59.09;100142.38;31870731;27;20043;-85
2023/10/29 06:37:10;;;;;;;4.15;2.40;;;;;;;24.18;55.54;100147.47;31848904;27;20493;-86
2023/10/29 06:52:12;;;;;;;6.05;2.40;;;;;;;24.76;52.41;100162.81;31817859;27;20051;-87
2023/10/29 07:07:18;;;;;;;8.53;2.77;;;;;;;25.40;50.01;100151.44;31883406;27;20447;-87
2023/10/29 07:22:20;;;;;;;4.07;2.37;;;;;;;26.37;47.57;100167.34;31862858;27;20055;-88
2023/10/29 07:37:21;;;;;;;13.52;5.13;;;;;;;27.36;46.08;100164.31;31850294;27;20082;-82
2023/10/29 07:52:24;;;;;;;3.13;1.98;;;;;;;28.03;44.85;100157.50;31863077;27;20137;-80
2023/10/29 08:07:28;;;;;;;5.23;2.43;;;;;;;28.82;43.42;100176.84;31853906;27;20043;-80
2023/10/29 08:22:30;;;;;;;10.45;4.43;;;;;;;29.10;42.18;100192.97;31835348;27;20170;-80
2023/10/29 08:37:34;;;;;;;3.67;1.90;;;;;;;29.22;41.19;100221.41;31841580;27;20077;-79
2023/10/29 08:52:37;;;;;;;6.53;1.92;;;;;;;29.35;42.09;100234.53;31856252;27;20054;-81
2023/10/29 09:07:39;;;;;;;3.03;1.63;;;;;;;30.29;40.65;100238.97;31838374;27;20511;-80
2023/10/29 09:22:41;;;;;;;;;;;;;;;30.49;39.68;100246.50;31855806;27;20047;-79
2023/10/29 09:37:52;;;;;;;3.33;1.67;;;;;;;30.97;38.21;100249.69;31846907;27;19926;-79
2023/10/29 09:52:54;;;;;;;6.93;3.90;;;;;;;31.47;37.64;100240.41;31868062;27;20055;-79
2023/10/29 10:07:57;;;;;;;4.40;1.73;;;;;;;31.45;37.76;100237.41;31845400;27;20047;-78
2023/10/29 10:23:04;;;;;;;2.80;1.23;;;;;;;31.85;36.58;100234.81;31870397;27;20047;-78
2023/10/29 10:38:07;;;;;;;3.10;1.30;;;;;;;32.01;36.49;100246.75;31847780;27;20484;-78
2023/10/29 10:53:10;;;;;;;3.90;1.23;;;;;;;31.84;36.00;100232.56;31857795;27;20055;-81
2023/10/29 11:08:14;;;;;;;27.50;16.27;;;;;;;30.86;36.76;100223.50;31816894;27;20664;-79
2023/10/29 11:23:22;;;;;;;3.55;1.90;;;;;;;30.99;36.58;100221.84;31846797;27;20050;-81
2023/10/29 11:38:36;;;;;;;3.83;1.77;;;;;;;30.02;35.23;100242.00;31865312;27;20051;-81
2023/10/29 11:53:39;;;;;;;4.88;2.45;;;;;;;27.63;37.80;100246.00;31855568;27;20416;-83
2023/10/29 12:08:41;;;;;;;;;;;;;;;26.45;39.72;100252.50;31828746;27;20092;-82
2023/10/29 12:23:43;;;;;;;7.28;2.90;;;;;;;26.40;40.25;100272.03;31806155;27;19920;-80
2023/10/29 12:38:45;;;;;;;2.97;2.28;;;;;;;25.86;41.16;100275.63;31809753;27;20058;-79
2023/10/29 12:53:50;;;;;;;2.45;1.38;;;;;;;25.63;41.95;100265.97;31810301;27;20062;-77
2023/10/29 13:08:52;;;;;;;4.17;2.30;;;;;;;25.41;42.38;100264.09;31818906;27;20051;-80
2023/10/29 13:23:54;;;;;;;6.95;2.20;;;;;;;25.09;43.00;100264.56;31818249;27;20095;-79
2023/10/29 13:38:57;;;;;;;4.50;2.50;;;;;;;24.82;44.16;100269.00;31840498;27;20136;-77
2023/10/29 13:53:59;;;;;;;5.15;2.90;;;;;;;24.65;44.75;100282.22;31843665;27;20086;-78
2023/10/29 14:09:02;;;;;;;4.30;2.28;;;;;;;24.25;45.68;100300.28;31827930;27;20055;-78
2023/10/29 14:24:07;;;;;;;10.07;4.22;;;;;;;23.66;46.71;100314.41;31843016;27;20051;-78
2023/10/29 14:39:09;;;;;;;26.38;10.93;;;;;;;23.30;47.36;100332.75;31868091;27;20047;-78
2023/10/29 14:54:12;;;;;;;13.93;4.70;;;;;;;23.07;47.99;100343.75;31806084;27;20146;-78
2023/10/29 15:09:14;;;;;;;8.80;4.00;;;;;;;22.77;48.78;100365.53;31828836;27;20462;-77
2023/10/29 15:24:17;;;;;;;9.18;3.97;;;;;;;22.91;49.07;100374.16;31856273;27;20452;-77
2023/10/29 15:39:19;;;;;;;7.05;3.15;;;;;;;22.44;49.81;100385.44;31878737;27;20074;-80
2023/10/29 15:54:21;;;;;;;6.40;2.25;;;;;;;22.22;50.49;100410.16;31884754;27;20533;-78
2023/10/29 16:09:28;;;;;;;11.65;2.53;;;;;;;22.01;51.40;100436.38;31814556;27;20137;-81
2023/10/29 16:24:32;;;;;;;4.45;2.53;;;;;;;21.95;51.46;100458.44;31829981;27;20059;-83
2023/10/29 16:39:35;;;;;;;4.90;2.70;;;;;;;21.24;52.74;100470.97;31820986;27;20047;-78
2023/10/29 16:54:37;;;;;;;6.38;2.83;;;;;;;21.19;53.69;100460.56;31854283;27;20570;-77
2023/10/29 17:09:39;;;;;;;7.32;3.95;;;;;;;21.07;54.57;100486.50;31855502;27;20059;-81
2023/10/29 17:24:42;;;;;;;7.95;3.58;;;;;;;20.61;55.55;100495.34;31889521;27;20111;-77
2023/10/29 17:39:44;;;;;;;28.92;9.57;;;;;;;20.19;57.91;100520.44;31880696;27;20055;-80
2023/10/29 17:54:46;;;;;;;12.83;5.67;;;;;;;20.09;58.25;100538.28;31871372;27;20504;-77
2023/10/29 18:09:51;;;;;;;13.10;6.57;;;;;;;20.30;59.33;100569.53;31853528;27;20381;-78
2023/10/29 18:24:53;;;;;;;11.60;6.23;;;;;;;20.32;59.60;100594.59;31870354;27;20509;-81
2023/10/29 18:39:56;;;;;;;17.60;8.43;;;;;;;20.13;60.80;100616.03;31864849;27;20054;-79
2023/10/29 18:54:58;;;;;;;19.67;8.93;;;;;;;20.09;61.37;100629.25;31821409;27;20061;-79
2023/10/29 19:10:00;;;;;;;14.63;6.33;;;;;;;20.01;61.24;100642.63;31845564;27;20111;-80
2023/10/29 19:25:03;;;;;;;19.33;8.73;;;;;;;20.03;61.53;100655.94;31854759;27;20059;-80
2023/10/29 19:40:06;;;;;;;16.57;8.33;;;;;;;19.70;64.66;100672.50;31802301;27;20052;-78
2023/10/29 19:55:13;;;;;;;27.10;12.47;;;;;;;19.63;64.54;100678.34;31828794;27;20412;-77
2023/10/29 20:10:18;;;;;;;20.50;10.00;;;;;;;19.62;65.57;100685.84;31783611;27;20104;-79
2023/10/29 20:25:20;;;;;;;18.87;9.07;;;;;;;19.17;68.05;100697.00;31855916;27;20089;-77
2023/10/29 20:40:22;;;;;;;23.00;11.47;;;;;;;18.55;72.33;100708.38;31883512;27;20056;-77
2023/10/29 20:55:28;;;;;;;20.43;10.67;;;;;;;17.84;76.85;100727.81;31854851;27;20043;-78
2023/10/29 21:10:31;;;;;;;34.17;15.97;;;;;;;17.74;89.63;100740.72;31852558;27;20047;-74
2023/10/29 21:25:36;;;;;;;37.23;17.60;;;;;;;17.43;87.73;100753.69;31853315;27;20411;-75
2023/10/29 21:40:38;;;;;;;37.43;16.83;;;;;;;18.18;81.49;100768.81;31859345;27;20055;-77
2023/10/29 21:55:40;;;;;;;29.83;13.37;;;;;;;18.05;80.24;100777.16;31867105;27;20133;-74
2023/10/29 22:10:42;;;;;;;21.60;11.00;;;;;;;17.99;79.90;100778.97;31861997;27;20094;-77
2023/10/29 22:25:45;;;;;;;21.97;9.53;;;;;;;17.54;80.09;100792.47;31879571;27;20126;-78
2023/10/29 22:40:48;;;;;;;24.77;10.37;;;;;;;17.01;80.29;100806.13;31792599;27;20407;-78
2023/10/29 22:55:50;;;;;;;28.67;12.77;;;;;;;16.37;87.34;100813.75;31821150;27;20044;-78
2023/10/29 23:10:52;;;;;;;26.63;12.77;;;;;;;16.47;90.64;100834.56;31825022;27;20051;-77
2023/10/29 23:25:54;;;;;;;29.17;13.30;;;;;;;16.57;91.49;100843.63;31846483;27;20051;-77
2023/10/29 23:40:57;;;;;;;30.40;13.30;;;;;;;16.52;91.30;100847.72;31844478;27;20086;-78
2023/10/29 23:55:59;;;;;;;27.13;13.33;;;;;;;16.58;91.96;100840.44;31812690;27;20052;-76
